createdAt,value
2022-10-21T00:00:31.693Z,937.12
2022-10-21T00:01:32.689Z,937.11
2022-10-21T00:02:33.647Z,937.08
2022-10-21T00:03:34.439Z,937.05
2022-10-21T00:04:34.793Z,937.06
2022-10-21T00:05:35.757Z,937.04
2022-10-21T00:06:36.042Z,937.06
2022-10-21T00:07:36.959Z,937.05
2022-10-21T00:08:37.203Z,937.03
2022-10-21T00:09:37.930Z,937.07
2022-10-21T00:11:39.211Z,937.05
2022-10-21T00:12:39.993Z,937
2022-10-21T00:13:40.082Z,937.05
2022-10-21T00:14:40.274Z,937.04
2022-10-21T00:15:40.721Z,937.03
2022-10-21T00:16:41.364Z,937.04
2022-10-21T00:17:42.274Z,937.02
2022-10-21T00:18:42.894Z,937.01
2022-10-21T00:19:43.881Z,937.03
2022-10-21T00:20:44.123Z,937.01
2022-10-21T00:21:44.742Z,937
2022-10-21T00:22:45.637Z,936.98
2022-10-21T00:23:45.830Z,936.96
2022-10-21T00:24:46.149Z,936.94
2022-10-21T00:25:47.057Z,936.99
2022-10-21T00:26:47.684Z,936.99
2022-10-21T00:27:48.583Z,936.96
2022-10-21T00:28:49.497Z,936.94
2022-10-21T00:29:49.936Z,936.99
2022-10-21T00:30:50.546Z,936.96
2022-10-21T00:31:51.152Z,936.95
2022-10-21T00:32:51.367Z,936.94
2022-10-21T00:33:52.067Z,936.94
2022-10-21T00:34:52.408Z,936.95
2022-10-21T00:35:52.672Z,936.93
2022-10-21T00:36:52.870Z,936.94
2022-10-21T00:37:53.061Z,936.95
2022-10-21T00:38:53.680Z,936.94
2022-10-21T00:39:54.652Z,936.89
2022-10-21T00:40:55.561Z,936.89
2022-10-21T00:41:56.203Z,936.89
2022-10-21T00:42:56.819Z,936.86
2022-10-21T00:43:57.031Z,936.8
2022-10-21T00:44:57.628Z,936.8
2022-10-21T00:45:57.831Z,936.72
2022-10-21T00:46:58.758Z,936.67
2022-10-21T00:47:59.688Z,936.68
2022-10-21T00:49:00.302Z,936.64
2022-10-21T00:50:01.327Z,936.61
2022-10-21T00:51:01.576Z,936.63
2022-10-21T00:52:01.779Z,936.59
2022-10-21T00:53:01.990Z,936.66
2022-10-21T00:54:02.611Z,936.64
2022-10-21T00:55:02.801Z,936.6
2022-10-21T00:56:03.422Z,936.57
2022-10-21T00:57:03.635Z,936.56
2022-10-21T00:58:04.561Z,936.59
2022-10-21T00:59:05.471Z,936.58
2022-10-21T01:00:05.923Z,936.62
2022-10-21T01:01:06.190Z,936.66
2022-10-21T01:02:07.002Z,936.68
2022-10-21T01:03:07.907Z,936.66
2022-10-21T01:04:08.827Z,936.69
2022-10-21T01:05:09.738Z,936.71
2022-10-21T01:06:09.983Z,936.66
2022-10-21T01:07:10.280Z,936.64
2022-10-21T01:08:11.187Z,936.63
2022-10-21T01:09:12.199Z,936.59
2022-10-21T01:10:12.777Z,936.63
2022-10-21T01:11:13.678Z,936.58
2022-10-21T01:12:13.878Z,936.57
2022-10-21T01:13:14.785Z,936.55
2022-10-21T01:14:15.407Z,936.53
2022-10-21T01:15:16.046Z,936.48
2022-10-21T01:16:16.936Z,936.46
2022-10-21T01:17:20.869Z,936.49
2022-10-21T01:18:17.301Z,936.45
2022-10-21T01:19:17.505Z,936.44
2022-10-21T01:20:17.920Z,936.39
2022-10-21T01:21:18.460Z,936.36
2022-10-21T01:22:19.364Z,936.34
2022-10-21T01:23:20.257Z,936.31
2022-10-21T01:24:20.465Z,936.32
2022-10-21T01:25:20.653Z,936.34
2022-10-21T01:26:21.277Z,936.34
2022-10-21T01:27:22.191Z,936.34
2022-10-21T01:28:23.165Z,936.37
2022-10-21T01:29:23.652Z,936.35
2022-10-21T01:30:24.236Z,936.33
2022-10-21T01:31:25.155Z,936.33
2022-10-21T01:32:25.470Z,936.3
2022-10-21T01:33:26.381Z,936.27
2022-10-21T01:34:26.630Z,936.26
2022-10-21T01:35:27.548Z,936.23
2022-10-21T01:36:28.513Z,936.2
2022-10-21T01:37:29.449Z,936.14
2022-10-21T01:38:29.780Z,936.12
2022-10-21T01:39:30.392Z,936.11
2022-10-21T01:40:30.830Z,936.09
2022-10-21T01:41:31.735Z,936.04
2022-10-21T01:42:32.335Z,936.06
2022-10-21T01:43:33.370Z,935.99
2022-10-21T01:44:33.558Z,935.99
2022-10-21T01:45:34.494Z,936
2022-10-21T01:46:35.132Z,935.98
2022-10-21T01:47:35.316Z,936
2022-10-21T01:48:35.929Z,936.02
2022-10-21T01:49:36.867Z,935.97
2022-10-21T01:50:37.584Z,935.91
2022-10-21T01:51:37.859Z,935.85
2022-10-21T01:52:38.329Z,935.84
2022-10-21T01:53:38.726Z,935.87
2022-10-21T01:54:39.641Z,935.81
2022-10-21T01:55:40.133Z,935.82
2022-10-21T01:56:40.630Z,935.79
2022-10-21T01:57:41.561Z,935.79
2022-10-21T01:58:42.192Z,935.78
2022-10-21T01:59:42.688Z,935.78
2022-10-21T02:00:42.864Z,935.71
2022-10-21T02:01:43.142Z,935.7
2022-10-21T02:02:44.059Z,935.68
2022-10-21T02:03:44.246Z,935.71
2022-10-21T02:04:44.445Z,935.65
2022-10-21T02:05:45.060Z,935.67
2022-10-21T02:06:45.320Z,935.64
2022-10-21T02:07:46.045Z,935.64
2022-10-21T02:08:46.970Z,935.63
2022-10-21T02:09:47.048Z,935.63
2022-10-21T02:10:48.087Z,935.65
2022-10-21T02:11:48.282Z,935.66
2022-10-21T02:12:48.615Z,935.69
2022-10-21T02:13:49.507Z,935.66
2022-10-21T02:14:50.122Z,935.66
2022-10-21T02:15:51.057Z,935.61
2022-10-21T02:16:51.966Z,935.57
2022-10-21T02:17:52.309Z,935.56
2022-10-21T02:18:52.920Z,935.53
2022-10-21T02:19:53.666Z,935.55
2022-10-21T02:20:54.645Z,935.51
2022-10-21T02:21:54.894Z,935.52
2022-10-21T02:22:55.229Z,935.55
2022-10-21T02:23:55.825Z,935.54
2022-10-21T02:24:56.446Z,935.5
2022-10-21T02:25:56.662Z,935.52
2022-10-21T02:26:56.860Z,935.57
2022-10-21T02:27:57.474Z,935.56
2022-10-21T02:28:58.368Z,935.54
2022-10-21T02:29:59.257Z,935.58
2022-10-21T02:30:59.697Z,935.58
2022-10-21T02:31:59.887Z,935.55
2022-10-21T02:33:00.799Z,935.55
2022-10-21T02:34:01.410Z,935.56
2022-10-21T02:35:02.352Z,935.51
2022-10-21T02:36:03.283Z,935.48
2022-10-21T02:37:03.549Z,935.44
2022-10-21T02:38:04.423Z,935.44
2022-10-21T02:39:05.334Z,935.45
2022-10-21T02:40:05.677Z,935.4
2022-10-21T02:41:06.669Z,935.4
2022-10-21T02:42:07.288Z,935.38
2022-10-21T02:43:07.910Z,935.42
2022-10-21T02:44:08.821Z,935.4
2022-10-21T02:45:09.455Z,935.41
2022-10-21T02:46:10.352Z,935.38
2022-10-21T02:48:11.207Z,935.42
2022-10-21T02:49:12.141Z,935.43
2022-10-21T02:50:13.089Z,935.46
2022-10-21T02:51:13.802Z,935.46
2022-10-21T02:52:14.786Z,935.46
2022-10-21T02:53:15.690Z,935.43
2022-10-21T02:54:16.032Z,935.46
2022-10-21T02:55:16.243Z,935.43
2022-10-21T02:56:16.901Z,935.42
2022-10-21T02:57:17.733Z,935.39
2022-10-21T02:58:18.625Z,935.37
2022-10-21T02:59:19.537Z,935.33
2022-10-21T03:00:20.166Z,935.33
2022-10-21T03:01:21.254Z,935.36
2022-10-21T03:02:21.396Z,935.33
2022-10-21T03:03:21.711Z,935.31
2022-10-21T03:04:22.344Z,935.28
2022-10-21T03:05:23.310Z,935.26
2022-10-21T03:06:23.697Z,935.27
2022-10-21T03:07:24.659Z,935.25
2022-10-21T03:08:25.306Z,935.24
2022-10-21T03:09:25.683Z,935.26
2022-10-21T03:10:26.206Z,935.27
2022-10-21T03:11:27.232Z,935.35
2022-10-21T03:12:27.852Z,935.3
2022-10-21T03:13:28.763Z,935.3
2022-10-21T03:14:29.105Z,935.28
2022-10-21T03:15:30.022Z,935.28
2022-10-21T03:16:30.934Z,935.29
2022-10-21T03:17:31.566Z,935.27
2022-10-21T03:18:32.114Z,935.3
2022-10-21T03:19:32.433Z,935.33
2022-10-21T03:20:32.638Z,935.32
2022-10-21T03:21:33.653Z,935.29
2022-10-21T03:22:34.200Z,935.27
2022-10-21T03:23:35.101Z,935.26
2022-10-21T03:24:36.014Z,935.24
2022-10-21T03:25:36.659Z,935.22
2022-10-21T03:26:36.841Z,935.23
2022-10-21T03:27:37.044Z,935.24
2022-10-21T03:28:37.657Z,935.29
2022-10-21T03:29:38.286Z,935.31
2022-10-21T03:30:38.603Z,935.35
2022-10-21T03:31:39.630Z,935.37
2022-10-21T03:32:40.710Z,935.37
2022-10-21T03:33:41.167Z,935.39
2022-10-21T03:34:41.779Z,935.35
2022-10-21T03:35:42.701Z,935.35
2022-10-21T03:36:42.891Z,935.31
2022-10-21T03:37:43.832Z,935.31
2022-10-21T03:38:44.339Z,935.32
2022-10-21T03:39:45.232Z,935.3
2022-10-21T03:40:45.554Z,935.33
2022-10-21T03:41:45.815Z,935.32
2022-10-21T03:42:46.441Z,935.3
2022-10-21T03:43:47.365Z,935.3
2022-10-21T03:44:48.283Z,935.31
2022-10-21T03:45:49.197Z,935.28
2022-10-21T03:46:50.117Z,935.31
2022-10-21T03:47:51.038Z,935.35
2022-10-21T03:48:51.371Z,935.32
2022-10-21T03:49:52.209Z,935.31
2022-10-21T03:50:53.267Z,935.29
2022-10-21T03:51:53.570Z,935.26
2022-10-21T03:52:53.820Z,935.28
2022-10-21T03:53:54.098Z,935.23
2022-10-21T03:54:54.298Z,935.22
2022-10-21T03:55:56.738Z,935.23
2022-10-21T03:56:56.190Z,935.16
2022-10-21T03:57:57.113Z,935.15
2022-10-21T03:58:58.742Z,935.17
2022-10-21T03:59:57.568Z,935.11
2022-10-21T04:00:58.237Z,935.14
2022-10-21T04:01:58.796Z,935.06
2022-10-21T04:02:58.973Z,935.07
2022-10-21T04:03:59.174Z,934.98
2022-10-21T04:05:00.103Z,934.96
2022-10-21T04:06:00.315Z,934.91
2022-10-21T04:07:00.646Z,934.91
2022-10-21T04:08:00.889Z,934.9
2022-10-21T04:09:01.159Z,934.86
2022-10-21T04:10:01.472Z,934.86
2022-10-21T04:11:02.225Z,934.82
2022-10-21T04:12:02.536Z,934.78
2022-10-21T04:13:02.734Z,934.78
2022-10-21T04:14:02.944Z,934.77
2022-10-21T04:15:03.806Z,934.74
2022-10-21T04:16:04.714Z,934.74
2022-10-21T04:17:08.554Z,934.76
2022-10-21T04:18:05.729Z,934.78
2022-10-21T04:19:06.336Z,934.78
2022-10-21T04:20:06.977Z,934.75
2022-10-21T04:21:07.193Z,934.74
2022-10-21T04:22:08.147Z,934.76
2022-10-21T04:23:09.118Z,934.72
2022-10-21T04:24:09.292Z,934.65
2022-10-21T04:25:10.201Z,934.63
2022-10-21T04:26:11.089Z,934.58
2022-10-21T04:27:11.705Z,934.56
2022-10-21T04:28:12.203Z,934.55
2022-10-21T04:29:12.834Z,934.54
2022-10-21T04:30:13.162Z,934.6
2022-10-21T04:31:14.074Z,934.59
2022-10-21T04:32:15.079Z,934.58
2022-10-21T04:33:15.700Z,934.55
2022-10-21T04:34:16.594Z,934.54
2022-10-21T04:35:17.645Z,934.57
2022-10-21T04:36:18.559Z,934.53
2022-10-21T04:37:19.470Z,934.51
2022-10-21T04:38:20.413Z,934.47
2022-10-21T04:39:20.609Z,934.46
2022-10-21T04:40:21.505Z,934.46
2022-10-21T04:41:21.691Z,934.49
2022-10-21T04:42:22.408Z,934.46
2022-10-21T04:43:23.338Z,934.41
2022-10-21T04:44:24.230Z,934.41
2022-10-21T04:45:25.120Z,934.41
2022-10-21T04:46:25.453Z,934.41
2022-10-21T04:47:26.358Z,934.35
2022-10-21T04:48:27.145Z,934.35
2022-10-21T04:49:27.347Z,934.38
2022-10-21T04:50:27.661Z,934.39
2022-10-21T04:51:27.917Z,934.34
2022-10-21T04:52:28.962Z,934.3
2022-10-21T04:53:29.931Z,934.28
2022-10-21T04:54:30.560Z,934.25
2022-10-21T04:55:31.485Z,934.28
2022-10-21T04:56:32.100Z,934.21
2022-10-21T04:57:32.730Z,934.24
2022-10-21T04:58:32.923Z,934.24
2022-10-21T04:59:33.955Z,934.19
2022-10-21T05:00:34.985Z,934.19
2022-10-21T05:01:35.547Z,934.2
2022-10-21T05:02:36.326Z,934.18
2022-10-21T05:03:36.876Z,934.13
2022-10-21T05:04:37.084Z,934.11
2022-10-21T05:05:37.295Z,934.07
2022-10-21T05:06:38.234Z,934.06
2022-10-21T05:07:39.146Z,934.05
2022-10-21T05:08:40.157Z,934.05
2022-10-21T05:09:40.618Z,934.02
2022-10-21T05:10:41.535Z,934
2022-10-21T05:11:42.448Z,934.03
2022-10-21T05:12:42.611Z,934.06
2022-10-21T05:13:43.518Z,934.01
2022-10-21T05:14:43.999Z,934.03
2022-10-21T05:15:44.915Z,934
2022-10-21T05:16:45.101Z,934.07
2022-10-21T05:17:45.287Z,934.01
2022-10-21T05:18:46.197Z,934.05
2022-10-21T05:19:47.239Z,934.03
2022-10-21T05:20:48.149Z,934.02
2022-10-21T05:21:48.373Z,934.02
2022-10-21T05:22:49.035Z,933.98
2022-10-21T05:23:49.265Z,934.01
2022-10-21T05:24:50.148Z,933.95
2022-10-21T05:25:50.775Z,933.97
2022-10-21T05:26:51.388Z,933.95
2022-10-21T05:27:52.295Z,933.92
2022-10-21T05:28:52.500Z,933.94
2022-10-21T05:29:52.845Z,933.9
2022-10-21T05:30:53.340Z,933.89
2022-10-21T05:31:54.223Z,933.81
2022-10-21T05:32:54.922Z,933.81
2022-10-21T05:33:55.404Z,933.8
2022-10-21T05:34:55.596Z,933.79
2022-10-21T05:35:55.912Z,933.87
2022-10-21T05:36:56.831Z,933.93
2022-10-21T05:37:57.162Z,933.91
2022-10-21T05:38:58.136Z,933.89
2022-10-21T05:39:58.756Z,933.89
2022-10-21T05:40:59.088Z,933.86
2022-10-21T05:41:59.698Z,933.82
2022-10-21T05:43:00.115Z,933.84
2022-10-21T05:44:00.324Z,933.8
2022-10-21T05:45:00.512Z,933.79
2022-10-21T05:46:01.442Z,933.79
2022-10-21T05:47:01.753Z,933.81
2022-10-21T05:48:02.388Z,933.81
2022-10-21T05:49:02.776Z,933.84
2022-10-21T05:50:03.393Z,933.83
2022-10-21T05:51:04.307Z,933.82
2022-10-21T05:52:04.502Z,933.77
2022-10-21T05:53:05.288Z,933.76
2022-10-21T05:54:06.253Z,933.73
2022-10-21T05:55:06.433Z,933.7
2022-10-21T05:56:07.040Z,933.74
2022-10-21T05:57:07.675Z,933.73
2022-10-21T05:58:08.310Z,933.75
2022-10-21T05:59:10.032Z,933.8
2022-10-21T06:00:09.545Z,933.82
2022-10-21T06:01:10.082Z,933.79
2022-10-21T06:02:10.402Z,933.79
2022-10-21T06:03:11.096Z,933.73
2022-10-21T06:04:12.007Z,933.8
2022-10-21T06:05:12.350Z,933.79
2022-10-21T06:06:13.263Z,933.8
2022-10-21T06:07:13.525Z,933.78
2022-10-21T06:08:13.722Z,933.8
2022-10-21T06:09:14.360Z,933.85
2022-10-21T06:10:14.863Z,933.85
2022-10-21T06:11:15.827Z,933.85
2022-10-21T06:12:16.469Z,933.75
2022-10-21T06:13:17.178Z,933.76
2022-10-21T06:14:18.095Z,933.8
2022-10-21T06:15:18.313Z,933.77
2022-10-21T06:16:19.225Z,933.74
2022-10-21T06:17:20.147Z,933.7
2022-10-21T06:18:21.098Z,933.7
2022-10-21T06:19:21.992Z,933.66
2022-10-21T06:20:22.910Z,933.7
2022-10-21T06:21:23.897Z,933.74
2022-10-21T06:22:24.572Z,933.76
2022-10-21T06:23:25.556Z,933.75
2022-10-21T06:24:26.094Z,933.71
2022-10-21T06:25:27.028Z,933.68
2022-10-21T06:26:27.645Z,933.65
2022-10-21T06:27:27.877Z,933.65
2022-10-21T06:28:28.557Z,933.64
2022-10-21T06:29:29.477Z,933.62
2022-10-21T06:30:30.405Z,933.65
2022-10-21T06:31:31.315Z,933.72
2022-10-21T06:32:32.375Z,933.73
2022-10-21T06:33:32.810Z,933.69
2022-10-21T06:34:33.746Z,933.62
2022-10-21T06:35:34.378Z,933.57
2022-10-21T06:36:34.572Z,933.57
2022-10-21T06:37:35.625Z,933.61
2022-10-21T06:38:35.862Z,933.58
2022-10-21T06:39:36.390Z,933.61
2022-10-21T06:40:37.290Z,933.61
2022-10-21T06:41:38.207Z,933.55
2022-10-21T06:42:38.811Z,933.55
2022-10-21T06:43:39.113Z,933.52
2022-10-21T06:44:40.049Z,933.55
2022-10-21T06:45:40.991Z,933.53
2022-10-21T06:46:41.904Z,933.52
2022-10-21T06:47:42.701Z,933.53
2022-10-21T06:48:43.223Z,933.56
2022-10-21T06:49:44.137Z,933.52
2022-10-21T06:50:45.033Z,933.57
2022-10-21T06:51:45.231Z,933.55
2022-10-21T06:52:45.438Z,933.53
2022-10-21T06:53:45.869Z,933.56
2022-10-21T06:54:46.853Z,933.59
2022-10-21T06:55:47.076Z,933.56
2022-10-21T06:56:47.710Z,933.56
2022-10-21T06:57:48.326Z,933.59
2022-10-21T06:58:48.520Z,933.63
2022-10-21T06:59:49.022Z,933.67
2022-10-21T07:00:49.642Z,933.66
2022-10-21T07:02:05.325Z,933.6
2022-10-21T07:02:50.223Z,933.57
2022-10-21T07:03:50.678Z,933.57
2022-10-21T07:04:50.945Z,933.55
2022-10-21T07:05:51.859Z,933.57
2022-10-21T07:06:52.058Z,933.62
2022-10-21T07:07:52.792Z,933.62
2022-10-21T07:08:58.077Z,933.58
2022-10-21T07:09:54.316Z,933.56
2022-10-21T07:10:54.626Z,933.44
2022-10-21T07:11:55.547Z,933.48
2022-10-21T07:12:56.465Z,933.45
2022-10-21T07:13:57.484Z,933.44
2022-10-21T07:14:57.710Z,933.46
2022-10-21T07:15:58.630Z,933.5
2022-10-21T07:16:59.545Z,933.52
2022-10-21T07:18:00.512Z,933.52
2022-10-21T07:19:01.124Z,933.46
2022-10-21T07:20:01.751Z,933.47
2022-10-21T07:21:02.675Z,933.4
2022-10-21T07:22:03.185Z,933.39
2022-10-21T07:23:04.112Z,933.35
2022-10-21T07:24:04.686Z,933.38
2022-10-21T07:25:05.086Z,933.42
2022-10-21T07:26:05.968Z,933.41
2022-10-21T07:27:06.906Z,933.32
2022-10-21T07:28:07.107Z,933.32
2022-10-21T07:29:07.742Z,933.29
2022-10-21T07:30:07.942Z,933.26
2022-10-21T07:31:08.155Z,933.29
2022-10-21T07:32:08.491Z,933.31
2022-10-21T07:33:09.109Z,933.28
2022-10-21T07:34:09.417Z,933.3
2022-10-21T07:35:10.052Z,933.29
2022-10-21T07:36:10.984Z,933.29
2022-10-21T07:37:11.167Z,933.27
2022-10-21T07:38:11.372Z,933.31
2022-10-21T07:39:12.379Z,933.34
2022-10-21T07:40:12.624Z,933.34
2022-10-21T07:41:13.252Z,933.33
2022-10-21T07:42:14.185Z,933.29
2022-10-21T07:44:15.643Z,933.34
2022-10-21T07:45:16.556Z,933.34
2022-10-21T07:46:17.472Z,933.34
2022-10-21T07:47:18.092Z,933.33
2022-10-21T07:48:18.735Z,933.35
2022-10-21T07:49:19.643Z,933.36
2022-10-21T07:50:20.135Z,933.32
2022-10-21T07:51:21.151Z,933.31
2022-10-21T07:52:21.732Z,933.3
2022-10-21T07:53:22.437Z,933.3
2022-10-21T07:54:23.178Z,933.26
2022-10-21T07:55:23.714Z,933.31
2022-10-21T07:56:24.314Z,933.31
2022-10-21T07:57:24.547Z,933.3
2022-10-21T07:58:24.788Z,933.25
2022-10-21T07:59:25.284Z,933.26
2022-10-21T08:00:26.225Z,933.23
2022-10-21T08:01:27.284Z,933.26
2022-10-21T08:02:27.687Z,933.3
2022-10-21T08:03:28.016Z,933.29
2022-10-21T08:04:28.439Z,933.31
2022-10-21T08:05:29.068Z,933.3
2022-10-21T08:06:29.702Z,933.26
2022-10-21T08:07:30.626Z,933.19
2022-10-21T08:08:30.889Z,933.21
2022-10-21T08:09:31.905Z,933.27
2022-10-21T08:10:32.462Z,933.3
2022-10-21T08:11:32.793Z,933.33
2022-10-21T08:12:32.997Z,933.38
2022-10-21T08:13:33.131Z,933.39
2022-10-21T08:14:33.891Z,933.34
2022-10-21T08:15:34.092Z,933.24
2022-10-21T08:16:35.111Z,933.28
2022-10-21T08:17:36.174Z,933.23
2022-10-21T08:18:36.665Z,933.26
2022-10-21T08:19:36.936Z,933.24
2022-10-21T08:20:37.068Z,933.25
2022-10-21T08:21:37.682Z,933.29
2022-10-21T08:22:38.092Z,933.31
2022-10-21T08:23:38.814Z,933.28
2022-10-21T08:24:41.391Z,933.25
2022-10-21T08:25:39.968Z,933.24
2022-10-21T08:26:40.145Z,933.3
2022-10-21T08:27:41.068Z,933.38
2022-10-21T08:28:41.976Z,933.41
2022-10-21T08:29:42.121Z,933.43
2022-10-21T08:30:42.610Z,933.45
2022-10-21T08:31:43.244Z,933.43
2022-10-21T08:32:44.163Z,933.4
2022-10-21T08:33:44.801Z,933.41
2022-10-21T08:34:45.820Z,933.43
2022-10-21T08:35:46.145Z,933.42
2022-10-21T08:36:46.792Z,933.38
2022-10-21T08:37:47.281Z,933.37
2022-10-21T08:38:48.111Z,933.32
2022-10-21T08:39:48.313Z,933.29
2022-10-21T08:40:49.988Z,933.34
2022-10-21T08:41:49.441Z,933.31
2022-10-21T08:42:50.373Z,933.35
2022-10-21T08:43:50.567Z,933.38
2022-10-21T08:44:51.561Z,933.32
2022-10-21T08:45:52.060Z,933.32
2022-10-21T08:46:52.981Z,933.33
2022-10-21T08:47:54.071Z,933.28
2022-10-21T08:48:54.266Z,933.25
2022-10-21T08:49:54.461Z,933.27
2022-10-21T08:50:55.373Z,933.24
2022-10-21T08:51:55.921Z,933.27
2022-10-21T08:52:56.411Z,933.25
2022-10-21T08:53:57.357Z,933.33
2022-10-21T08:54:58.381Z,933.29
2022-10-21T08:55:59.321Z,933.36
2022-10-21T08:56:59.620Z,933.35
2022-10-21T08:58:00.109Z,933.26
2022-10-21T08:59:00.440Z,933.34
2022-10-21T09:00:01.085Z,933.37
2022-10-21T09:01:01.757Z,933.35
2022-10-21T09:02:02.248Z,933.37
2022-10-21T09:03:03.311Z,933.36
2022-10-21T09:04:03.924Z,933.29
2022-10-21T09:05:04.931Z,933.25
2022-10-21T09:06:05.872Z,933.27
2022-10-21T09:07:06.787Z,933.38
2022-10-21T09:08:07.687Z,933.39
2022-10-21T09:09:08.233Z,933.44
2022-10-21T09:10:08.357Z,933.35
2022-10-21T09:11:08.626Z,933.44
2022-10-21T09:12:09.656Z,933.43
2022-10-21T09:13:09.884Z,933.54
2022-10-21T09:14:10.515Z,933.56
2022-10-21T09:15:11.359Z,933.61
2022-10-21T09:16:11.348Z,933.69
2022-10-21T09:17:11.572Z,933.82
2022-10-21T09:18:11.772Z,934.1
2022-10-21T09:19:11.992Z,934.24
2022-10-21T09:20:12.545Z,934.37
2022-10-21T09:21:13.521Z,934.46
2022-10-21T09:22:34.145Z,934.44
2022-10-21T09:23:14.999Z,934.73
2022-10-21T09:24:15.159Z,934.8
2022-10-21T09:25:16.137Z,934.69
2022-10-21T09:26:16.688Z,934.73
2022-10-21T09:27:19.486Z,934.81
2022-10-21T09:28:17.499Z,934.84
2022-10-21T09:29:18.393Z,934.78
2022-10-21T09:30:18.598Z,934.83
2022-10-21T09:31:19.514Z,934.81
2022-10-21T09:32:20.229Z,934.84
2022-10-21T09:33:20.436Z,934.85
2022-10-21T09:34:20.643Z,934.91
2022-10-21T09:35:21.705Z,934.91
2022-10-21T09:36:22.339Z,934.9
2022-10-21T09:37:22.971Z,934.96
2022-10-21T09:38:23.788Z,934.99
2022-10-21T09:39:23.985Z,935.04
2022-10-21T09:40:24.490Z,935.1
2022-10-21T09:41:24.749Z,935.05
2022-10-21T09:42:48.002Z,935.15
2022-10-21T09:43:26.233Z,935.17
2022-10-21T09:44:26.654Z,935.21
2022-10-21T09:45:26.777Z,935.17
2022-10-21T09:46:26.978Z,935.21
2022-10-21T09:47:27.170Z,935.28
2022-10-21T09:48:28.870Z,935.26
2022-10-21T09:50:09.130Z,935.31
2022-10-21T09:51:09.616Z,935.36
2022-10-21T09:52:10.529Z,935.43
2022-10-21T09:53:11.161Z,935.34
2022-10-21T09:54:11.768Z,935.4
2022-10-21T09:55:12.275Z,935.48
2022-10-21T09:56:13.296Z,935.5
2022-10-21T09:57:14.236Z,935.51
2022-10-21T09:58:14.721Z,935.51
2022-10-21T09:59:15.645Z,935.53
2022-10-21T10:00:15.887Z,935.55
2022-10-21T10:01:16.095Z,935.55
2022-10-21T10:02:16.417Z,935.6
2022-10-21T10:03:16.944Z,935.59
2022-10-21T10:04:17.865Z,935.64
2022-10-21T10:05:18.801Z,935.69
2022-10-21T10:06:19.536Z,935.73
2022-10-21T10:07:19.735Z,935.81
2022-10-21T10:08:20.653Z,935.83
2022-10-21T10:09:21.096Z,935.92
2022-10-21T10:10:22.030Z,935.93
2022-10-21T10:11:22.237Z,935.94
2022-10-21T10:12:22.465Z,936.03
2022-10-21T10:13:23.447Z,936.01
2022-10-21T10:14:24.337Z,936.02
2022-10-21T10:15:26.857Z,936.09
2022-10-21T10:16:25.676Z,936.03
2022-10-21T10:17:25.885Z,936.05
2022-10-21T10:18:26.813Z,936.04
2022-10-21T10:19:27.043Z,936.06
2022-10-21T10:20:28.097Z,936.06
2022-10-21T10:21:28.308Z,936.04
2022-10-21T10:22:29.238Z,936.04
2022-10-21T10:23:29.720Z,936.02
2022-10-21T10:24:29.914Z,936.04
2022-10-21T10:25:30.416Z,936.06
2022-10-21T10:26:31.399Z,936.03
2022-10-21T10:27:31.969Z,936.1
2022-10-21T10:28:32.667Z,936.08
2022-10-21T10:29:33.460Z,936.09
2022-10-21T10:30:34.384Z,936.08
2022-10-21T10:31:35.024Z,936.05
2022-10-21T10:32:36.290Z,935.99
2022-10-21T10:33:37.116Z,935.91
2022-10-21T10:34:38.209Z,935.89
2022-10-21T10:35:38.543Z,935.89
2022-10-21T10:36:39.493Z,935.9
2022-10-21T10:37:40.423Z,935.92
2022-10-21T10:38:41.046Z,935.96
2022-10-21T10:39:41.674Z,935.98
2022-10-21T10:40:42.701Z,936
2022-10-21T10:41:43.554Z,936.02
2022-10-21T10:42:43.803Z,936.02
2022-10-21T10:43:43.984Z,935.99
2022-10-21T10:44:44.476Z,935.99
2022-10-21T10:45:45.377Z,935.99
2022-10-21T10:46:45.531Z,936.07
2022-10-21T10:47:46.262Z,936.13
2022-10-21T10:48:46.902Z,936.17
2022-10-21T10:49:47.094Z,936.19
2022-10-21T10:50:48.002Z,936.16
2022-10-21T10:51:49.063Z,936.12
2022-10-21T10:52:49.259Z,936.1
2022-10-21T10:53:49.883Z,936.17
2022-10-21T10:54:50.776Z,936.1
2022-10-21T10:55:51.784Z,936.14
2022-10-21T10:56:52.716Z,936.1
2022-10-21T10:57:59.196Z,936.1
2022-10-21T10:58:53.123Z,936.16
2022-10-21T10:59:53.620Z,936.19
2022-10-21T11:00:54.600Z,936.32
2022-10-21T11:01:55.103Z,936.34
2022-10-21T11:02:56.111Z,936.32
2022-10-21T11:03:56.309Z,936.38
2022-10-21T11:04:57.267Z,936.38
2022-10-21T11:05:58.191Z,936.45
2022-10-21T11:06:58.932Z,936.48
2022-10-21T11:07:59.854Z,936.49
2022-10-21T11:09:00.790Z,936.46
2022-10-21T11:10:01.321Z,936.43
2022-10-21T11:11:01.642Z,936.45
2022-10-21T11:12:02.546Z,936.46
2022-10-21T11:13:03.372Z,936.44
2022-10-21T11:14:04.294Z,936.49
2022-10-21T11:15:04.878Z,936.45
2022-10-21T11:16:05.927Z,936.45
2022-10-21T11:17:06.962Z,936.52
2022-10-21T11:18:22.964Z,936.51
2022-10-21T11:19:07.667Z,936.5
2022-10-21T11:20:08.316Z,936.51
2022-10-21T11:21:08.536Z,936.46
2022-10-21T11:22:09.462Z,936.47
2022-10-21T11:23:10.097Z,936.46
2022-10-21T11:24:10.443Z,936.51
2022-10-21T11:25:11.343Z,936.45
2022-10-21T11:26:11.642Z,936.47
2022-10-21T11:27:13.566Z,936.43
2022-10-21T11:28:13.802Z,936.44
2022-10-21T11:29:14.010Z,936.48
2022-10-21T11:30:14.625Z,936.47
2022-10-21T11:31:15.539Z,936.51
2022-10-21T11:32:15.905Z,936.48
2022-10-21T11:33:16.923Z,936.45
2022-10-21T11:34:17.849Z,936.45
2022-10-21T11:35:18.464Z,936.49
2022-10-21T11:36:19.405Z,936.6
2022-10-21T11:37:19.620Z,936.54
2022-10-21T11:38:20.155Z,936.46
2022-10-21T11:39:21.639Z,936.53
2022-10-21T11:40:21.315Z,936.56
2022-10-21T11:41:24.168Z,936.53
2022-10-21T11:42:23.414Z,936.46
2022-10-21T11:43:23.879Z,936.49
2022-10-21T11:44:28.462Z,936.45
2022-10-21T11:45:24.938Z,936.4
2022-10-21T11:46:25.261Z,936.41
2022-10-21T11:47:26.027Z,936.5
2022-10-21T11:48:26.657Z,936.48
2022-10-21T11:49:27.350Z,936.5
2022-10-21T11:50:27.754Z,936.49
2022-10-21T11:51:27.994Z,936.49
2022-10-21T11:52:28.211Z,936.5
2022-10-21T11:53:29.265Z,936.46
2022-10-21T11:54:29.469Z,936.42
2022-10-21T11:55:30.068Z,936.46
2022-10-21T11:56:30.362Z,936.44
2022-10-21T11:57:30.998Z,936.37
2022-10-21T11:58:31.830Z,936.39
2022-10-21T11:59:32.476Z,936.39
2022-10-21T12:00:33.201Z,936.42
2022-10-21T12:01:33.403Z,936.46
2022-10-21T12:02:33.761Z,936.46
2022-10-21T12:03:33.841Z,936.46
2022-10-21T12:04:34.518Z,936.42
2022-10-21T12:05:34.729Z,936.44
2022-10-21T12:06:35.202Z,936.42
2022-10-21T12:07:35.481Z,936.39
2022-10-21T12:08:37.205Z,936.46
2022-10-21T12:09:36.635Z,936.48
2022-10-21T12:10:37.569Z,936.47
2022-10-21T12:11:37.888Z,936.45
2022-10-21T12:12:39.127Z,936.47
2022-10-21T12:13:39.216Z,936.47
2022-10-21T12:14:39.858Z,936.46
2022-10-21T12:15:40.054Z,936.43
2022-10-21T12:16:40.982Z,936.39
2022-10-21T12:17:41.647Z,936.38
2022-10-21T12:18:42.424Z,936.39
2022-10-21T12:19:43.356Z,936.39
2022-10-21T12:20:43.851Z,936.39
2022-10-21T12:21:44.780Z,936.32
2022-10-21T12:22:45.735Z,936.27
2022-10-21T12:23:46.401Z,936.26
2022-10-21T12:24:47.322Z,936.2
2022-10-21T12:25:47.942Z,936.22
2022-10-21T12:26:48.310Z,936.23
2022-10-21T12:27:48.884Z,936.24
2022-10-21T12:28:49.248Z,936.25
2022-10-21T12:29:50.209Z,936.23
2022-10-21T12:30:51.012Z,936.25
2022-10-21T12:31:51.677Z,936.23
2022-10-21T12:32:51.868Z,936.22
2022-10-21T12:33:52.195Z,936.26
2022-10-21T12:34:52.825Z,936.31
2022-10-21T12:35:53.026Z,936.32
2022-10-21T12:36:53.939Z,936.3
2022-10-21T12:37:54.443Z,936.31
2022-10-21T12:38:55.207Z,936.33
2022-10-21T12:39:56.133Z,936.27
2022-10-21T12:40:57.091Z,936.29
2022-10-21T12:41:57.396Z,936.26
2022-10-21T12:42:57.895Z,936.39